Home   Weather   Fly Island   Past weeks
Flag for Australia

Past Weather in Fly Island, Queensland, Australia — Yesterday and Last 2 Weeks

Currently: 77 °F. Sunny. (Weather station: Townsville Amo, Australia). See more current weather

Past Weather in Fly Island — Graph

°F

Fly Island Temperature Yesterday

Maximum temperature yesterday: 81 °F (at 10:00 am)
Minimum temperature yesterday: 66 °F (at 4:30 am)
Average temperature yesterday: 73 °F

High & Low Weather Summary for the Past Weeks

 TemperatureHumidityPressure
High86 °F (Sep 14, 2:00 pm)100% (Sep 13, 12:30 am)30.27 "Hg (Sep 13, 12:30 am)
Low57 °F (Sep 16, 5:30 am)27% (Sep 7, 10:00 am)29.89 "Hg (Sep 13, 3:00 pm)
Average72 °F73%30.08 "Hg
* Reported Sep 4 4:00 pm — Sep 19 4:30 pm, Fly Island. Weather by CustomWeather, © 2021

Note: Actual official high and low records may vary slightly from our data, if they occured in-between our weather recording intervals... More about our weather records

Fly Island Weather History for the Previous 24 Hours

Scroll right to see more
 ConditionsComfort  
Time TempWeatherWind HumidityBarometerVisibility
4:30 pm
Sun, Sep 19
77 °FSunny.17 mph61%30.07 "HgN/A
4:00 pm77 °FSunny.17 mph65%30.04 "HgN/A
3:30 pm79 °FSunny.17 mph58%30.07 "HgN/A
3:00 pm79 °FSunny.20 mph58%30.07 "HgN/A
2:30 pm81 °FSunny.18 mph58%30.07 "HgN/A
2:00 pm79 °FSunny.17 mph58%30.07 "HgN/A
1:30 pm81 °FSunny.17 mph58%30.07 "HgN/A
1:00 pm81 °FSunny.17 mph58%30.09 "HgN/A
12:30 pm81 °FSunny.18 mph51%30.09 "HgN/A
12:00 pm79 °FScattered clouds.20 mph58%30.12 "HgN/A
11:30 am79 °FScattered clouds.16 mph58%30.12 "HgN/A
11:00 am79 °FScattered clouds.13 mph61%30.12 "HgN/A
9:30 am77 °FSunny.16 mph61%30.15 "HgN/A
9:00 am77 °FSunny.13 mph61%30.15 "HgN/A
8:30 am75 °FScattered clouds.12 mph61%30.15 "HgN/A
8:00 am72 °FSunny.9 mph69%30.12 "HgN/A
7:30 am70 °FSunny.9 mph73%30.12 "HgN/A
7:00 am64 °FSunny.No wind88%30.12 "HgN/A
6:30 am61 °FSunny.No wind88%30.12 "HgN/A
6:00 am61 °FClear.No wind94%30.09 "HgN/A
5:30 am61 °FClear.No wind94%30.09 "HgN/A
5:00 am59 °FClear.No wind94%30.09 "HgN/A
4:30 am63 °FClear.No wind83%30.09 "HgN/A
4:00 am64 °FClear.8 mph83%30.09 "HgN/A
3:30 am64 °FClear.8 mph83%30.09 "HgN/A
3:00 am66 °FClear.7 mph78%30.09 "HgN/A
2:30 am66 °FClear.8 mph78%30.09 "HgN/A
2:00 am66 °FClear.7 mph78%30.12 "HgN/A
1:30 am66 °FClear.7 mph78%30.12 "HgN/A
1:00 am68 °FClear.8 mph73%30.12 "HgN/A
12:30 am68 °FPassing clouds.8 mph73%30.15 "HgN/A
12:00 am68 °FPassing clouds.8 mph73%30.15 "HgN/A
11:30 pm
Sat, Sep 18
68 °FPassing clouds.8 mph73%30.15 "HgN/A
11:00 pm68 °FClear.8 mph78%30.15 "HgN/A
10:30 pm70 °FClear.9 mph73%30.15 "HgN/A
10:00 pm70 °FClear.8 mph73%30.15 "HgN/A
9:30 pm70 °FClear.8 mph73%30.15 "HgN/A
9:00 pm70 °FPassing clouds.8 mph73%30.15 "HgN/A
8:30 pm72 °FPassing clouds.9 mph69%30.15 "HgN/A
8:00 pm72 °FClear.10 mph65%30.12 "HgN/A
7:30 pm72 °FClear.9 mph65%30.12 "HgN/A
7:00 pm72 °FClear.12 mph61%30.12 "HgN/A
6:30 pm73 °FClear.14 mph61%30.09 "HgN/A
6:00 pm73 °FSunny.15 mph61%30.09 "HgN/A
5:30 pm75 °FSunny.16 mph57%30.09 "HgN/A
5:00 pm75 °FScattered clouds.15 mph57%30.07 "HgN/A
Weather by CustomWeather, © 2021

See weather overview